Terminal Aerodrome Forecast
Issued by NWS

Home | Current Version | Previous Version | Text Only | Print | Product List | Glossary On
Versions: 1 2 3 4 5 6 7 8 9 10 11 12 13 14 15 16
000
FTUS46 KLOX 260535
TAFWJF
TAF
KWJF 260535Z 2606/2706 24012KT P6SM SKC
     FM261300 24006KT P6SM SKC
     FM262100 22015G25KT P6SM FEW100
     FM270200 23015KT P6SM SKC=

USA.gov is the U.S. government's official web portal to all federal, state and local government web resources and services.